createdAt,value
2016-09-08T00:00:45.738Z,0
2016-09-08T00:01:45.737Z,0
2016-09-08T00:02:45.739Z,0
2016-09-08T00:03:45.744Z,0
2016-09-08T00:04:45.743Z,0
2016-09-08T00:05:45.752Z,0
2016-09-08T00:06:45.745Z,0
2016-09-08T00:07:45.752Z,0
2016-09-08T00:08:45.769Z,0
2016-09-08T00:09:45.747Z,0
2016-09-08T00:10:46.003Z,0
2016-09-08T00:11:45.764Z,0
2016-09-08T00:12:45.750Z,0
2016-09-08T00:13:45.750Z,0
2016-09-08T00:14:46.070Z,0
2016-09-08T00:15:45.756Z,0
2016-09-08T00:16:46.066Z,0
2016-09-08T00:17:45.757Z,0
2016-09-08T00:18:45.755Z,0
2016-09-08T00:19:45.758Z,0
2016-09-08T00:20:45.762Z,0
2016-09-08T00:21:45.760Z,0
2016-09-08T00:22:46.076Z,0
2016-09-08T00:23:45.766Z,0
2016-09-08T00:24:45.779Z,0
2016-09-08T00:25:45.764Z,0
2016-09-08T00:26:45.763Z,0
2016-09-08T00:27:46.081Z,0
2016-09-08T00:28:45.767Z,0
2016-09-08T00:29:45.780Z,0
2016-09-08T00:30:45.776Z,0
2016-09-08T00:31:45.790Z,0
2016-09-08T00:32:45.784Z,0
2016-09-08T00:33:45.786Z,0
2016-09-08T00:34:45.784Z,0
2016-09-08T00:35:45.773Z,0
2016-09-08T00:36:45.786Z,0
2016-09-08T00:37:45.786Z,0
2016-09-08T00:38:45.790Z,0
2016-09-08T00:39:45.786Z,0
2016-09-08T00:40:45.786Z,0
2016-09-08T00:41:45.789Z,0
2016-09-08T00:42:45.789Z,0
2016-09-08T00:43:45.791Z,0
2016-09-08T00:44:45.792Z,0
2016-09-08T00:45:45.789Z,0
2016-09-08T00:46:45.793Z,0
2016-09-08T00:47:45.790Z,0
2016-09-08T00:48:45.791Z,0
2016-09-08T00:49:46.106Z,0
2016-09-08T00:50:45.795Z,0
2016-09-08T00:51:45.796Z,0
2016-09-08T00:52:45.798Z,0
2016-09-08T00:53:45.801Z,0
2016-09-08T00:54:45.819Z,0
2016-09-08T00:55:45.802Z,0
2016-09-08T00:56:45.803Z,0
2016-09-08T00:57:46.049Z,0
2016-09-08T00:58:46.119Z,0
2016-09-08T00:59:46.052Z,0
2016-09-08T01:00:45.806Z,0
2016-09-08T01:01:45.805Z,0
2016-09-08T01:02:45.823Z,0
2016-09-08T01:03:45.812Z,0
2016-09-08T01:04:45.803Z,0
2016-09-08T01:05:45.811Z,0
2016-09-08T01:06:45.809Z,0
2016-09-08T01:07:45.810Z,0
2016-09-08T01:08:45.808Z,0
2016-09-08T01:09:45.812Z,0
2016-09-08T01:10:45.808Z,0
2016-09-08T01:11:45.808Z,0
2016-09-08T01:12:45.809Z,0
2016-09-08T01:13:45.819Z,0
2016-09-08T01:14:45.815Z,0
2016-09-08T01:15:45.817Z,0
2016-09-08T01:16:45.816Z,0
2016-09-08T01:17:45.818Z,0
2016-09-08T01:18:45.818Z,0
2016-09-08T01:19:45.830Z,0
2016-09-08T01:20:45.820Z,0
2016-09-08T01:21:45.821Z,0
2016-09-08T01:22:45.817Z,0
2016-09-08T01:23:45.825Z,0
2016-09-08T01:24:45.820Z,0
2016-09-08T01:25:45.823Z,0
2016-09-08T01:26:45.827Z,0
2016-09-08T01:27:45.821Z,0
2016-09-08T01:28:45.835Z,0
2016-09-08T01:29:45.833Z,0
2016-09-08T01:30:45.856Z,0
2016-09-08T01:31:45.828Z,0
2016-09-08T01:32:46.075Z,0
2016-09-08T01:33:45.824Z,0
2016-09-08T01:34:45.878Z,0
2016-09-08T01:35:45.825Z,0
2016-09-08T01:36:45.832Z,0
2016-09-08T01:37:45.829Z,0
2016-09-08T01:38:45.831Z,0
2016-09-08T01:39:46.143Z,0
2016-09-08T01:40:45.834Z,0
2016-09-08T01:41:45.834Z,0
2016-09-08T01:42:45.834Z,0
2016-09-08T01:43:45.835Z,0
2016-09-08T01:44:45.837Z,0
2016-09-08T01:45:45.846Z,0
2016-09-08T01:46:45.845Z,0
2016-09-08T01:47:46.327Z,0
2016-09-08T01:48:45.839Z,0
2016-09-08T01:49:46.091Z,0
2016-09-08T01:50:45.836Z,0
2016-09-08T01:51:45.840Z,0
2016-09-08T01:52:45.833Z,0
2016-09-08T01:53:45.840Z,0
2016-09-08T01:54:45.836Z,0
2016-09-08T01:55:45.840Z,0
2016-09-08T01:56:45.837Z,0
2016-09-08T01:57:45.841Z,0
2016-09-08T01:58:46.397Z,0
2016-09-08T01:59:45.841Z,0
2016-09-08T02:00:45.838Z,0
2016-09-08T02:01:45.848Z,0
2016-09-08T02:02:45.845Z,0
2016-09-08T02:03:45.856Z,0
2016-09-08T02:04:46.159Z,0
2016-09-08T02:05:45.844Z,0
2016-09-08T02:06:45.850Z,0
2016-09-08T02:07:45.848Z,0
2016-09-08T02:08:46.166Z,0
2016-09-08T02:09:45.853Z,0
2016-09-08T02:10:45.849Z,0
2016-09-08T02:11:45.868Z,0
2016-09-08T02:12:45.852Z,0
2016-09-08T02:13:45.847Z,0
2016-09-08T02:14:45.851Z,0
2016-09-08T02:15:45.848Z,0
2016-09-08T02:16:45.853Z,0
2016-09-08T02:17:45.850Z,0
2016-09-08T02:18:46.096Z,0
2016-09-08T02:19:45.848Z,0
2016-09-08T02:20:46.175Z,0
2016-09-08T02:21:45.849Z,0
2016-09-08T02:22:45.854Z,0
2016-09-08T02:23:46.170Z,0
2016-09-08T02:24:45.853Z,0
2016-09-08T02:25:45.855Z,0
2016-09-08T02:26:45.874Z,0
2016-09-08T02:27:46.102Z,0
2016-09-08T02:28:45.857Z,0
2016-09-08T02:29:45.859Z,0
2016-09-08T02:30:45.859Z,0
2016-09-08T02:31:45.859Z,0
2016-09-08T02:32:45.861Z,0
2016-09-08T02:33:45.879Z,0
2016-09-08T02:34:45.859Z,0
2016-09-08T02:35:45.859Z,0
2016-09-08T02:36:45.860Z,0
2016-09-08T02:37:45.863Z,0
2016-09-08T02:38:45.857Z,0
2016-09-08T02:39:45.863Z,0
2016-09-08T02:40:45.857Z,0
2016-09-08T02:41:45.862Z,0
2016-09-08T02:42:45.861Z,0
2016-09-08T02:43:45.863Z,0
2016-09-08T02:44:45.859Z,0
2016-09-08T02:45:45.861Z,0
2016-09-08T02:46:45.863Z,0
2016-09-08T02:47:45.865Z,0
2016-09-08T02:48:45.863Z,0
2016-09-08T02:49:45.866Z,0
2016-09-08T02:50:45.863Z,0
2016-09-08T02:51:45.865Z,0
2016-09-08T02:52:45.865Z,0
2016-09-08T02:53:45.865Z,0
2016-09-08T02:54:46.177Z,0
2016-09-08T02:55:45.866Z,0
2016-09-08T02:56:45.887Z,0
2016-09-08T02:57:45.862Z,0
2016-09-08T02:58:45.869Z,0
2016-09-08T02:59:45.866Z,0
2016-09-08T03:00:45.871Z,0
2016-09-08T03:01:45.864Z,0
2016-09-08T03:02:45.869Z,0
2016-09-08T03:03:45.867Z,0
2016-09-08T03:04:45.871Z,0
2016-09-08T03:05:45.871Z,0
2016-09-08T03:06:45.870Z,0
2016-09-08T03:07:45.877Z,0
2016-09-08T03:08:45.881Z,0
2016-09-08T03:09:45.867Z,0
2016-09-08T03:10:45.875Z,0
2016-09-08T03:11:45.879Z,0
2016-09-08T03:12:45.868Z,0
2016-09-08T03:13:45.876Z,0
2016-09-08T03:14:46.121Z,0
2016-09-08T03:15:45.870Z,0
2016-09-08T03:16:45.874Z,0
2016-09-08T03:17:45.875Z,0
2016-09-08T03:18:45.881Z,0
2016-09-08T03:19:45.871Z,0
2016-09-08T03:20:45.872Z,0
2016-09-08T03:21:45.877Z,0
2016-09-08T03:22:45.875Z,0
2016-09-08T03:23:45.874Z,0
2016-09-08T03:24:45.877Z,0
2016-09-08T03:25:45.883Z,0
2016-09-08T03:26:45.877Z,0
2016-09-08T03:27:46.190Z,0
2016-09-08T03:28:45.882Z,0
2016-09-08T03:29:45.879Z,0
2016-09-08T03:30:45.876Z,0
2016-09-08T03:31:45.884Z,0
2016-09-08T03:32:45.876Z,0
2016-09-08T03:33:46.197Z,0
2016-09-08T03:34:45.928Z,0
2016-09-08T03:35:45.882Z,0
2016-09-08T03:36:45.882Z,0
2016-09-08T03:37:45.885Z,0
2016-09-08T03:38:45.889Z,0
2016-09-08T03:39:45.885Z,0
2016-09-08T03:40:46.198Z,0
2016-09-08T03:41:45.887Z,0
2016-09-08T03:42:45.884Z,0
2016-09-08T03:43:45.879Z,0
2016-09-08T03:44:45.882Z,0
2016-09-08T03:45:45.885Z,0
2016-09-08T03:46:45.881Z,0
2016-09-08T03:47:45.886Z,0
2016-09-08T03:48:46.197Z,0
2016-09-08T03:49:45.871Z,0
2016-09-08T03:50:45.875Z,0
2016-09-08T03:51:45.870Z,0
2016-09-08T03:52:45.865Z,0
2016-09-08T03:53:45.889Z,0
2016-09-08T03:54:45.886Z,0
2016-09-08T03:55:45.875Z,0
2016-09-08T03:56:45.874Z,0
2016-09-08T03:57:45.889Z,0
2016-09-08T03:58:45.869Z,0
2016-09-08T03:59:45.869Z,0
2016-09-08T04:00:45.874Z,0
2016-09-08T04:01:45.866Z,0
2016-09-08T04:02:45.869Z,0
2016-09-08T04:03:45.865Z,0
2016-09-08T04:04:45.874Z,0
2016-09-08T04:05:45.873Z,0
2016-09-08T04:06:45.877Z,0
2016-09-08T04:07:45.871Z,0
2016-09-08T04:08:45.866Z,0
2016-09-08T04:09:45.872Z,0
2016-09-08T04:10:45.869Z,0
2016-09-08T04:11:45.886Z,4
2016-09-08T04:12:45.870Z,4
2016-09-08T04:13:45.871Z,4
2016-09-08T04:14:45.871Z,4
2016-09-08T04:15:45.877Z,0
2016-09-08T04:16:45.867Z,0
2016-09-08T04:17:45.868Z,4
2016-09-08T04:18:45.874Z,4
2016-09-08T04:19:46.184Z,4
2016-09-08T04:20:46.114Z,4
2016-09-08T04:21:45.875Z,4
2016-09-08T04:22:45.871Z,4
2016-09-08T04:23:45.874Z,8
2016-09-08T04:24:46.184Z,8
2016-09-08T04:25:45.871Z,12
2016-09-08T04:26:45.870Z,8
2016-09-08T04:27:45.877Z,12
2016-09-08T04:28:45.878Z,16
2016-09-08T04:29:45.871Z,20
2016-09-08T04:30:45.861Z,20
2016-09-08T04:31:45.873Z,24
2016-09-08T04:32:45.878Z,28
2016-09-08T04:33:45.862Z,36
2016-09-08T04:34:45.863Z,40
2016-09-08T04:35:45.876Z,44
2016-09-08T04:36:45.865Z,52
2016-09-08T04:37:45.865Z,60
2016-09-08T04:38:45.886Z,72
2016-09-08T04:39:45.860Z,80
2016-09-08T04:40:45.862Z,92
2016-09-08T04:41:45.861Z,104
2016-09-08T04:42:45.863Z,116
2016-09-08T04:43:45.863Z,132
2016-09-08T04:44:45.864Z,148
2016-09-08T04:45:45.864Z,164
2016-09-08T04:46:45.861Z,184
2016-09-08T04:47:46.179Z,204
2016-09-08T04:48:45.858Z,224
2016-09-08T04:49:45.866Z,248
2016-09-08T04:50:45.861Z,276
2016-09-08T04:51:46.196Z,300
2016-09-08T04:52:45.876Z,328
2016-09-08T04:53:45.866Z,356
2016-09-08T04:54:45.865Z,388
2016-09-08T04:55:45.868Z,420
2016-09-08T04:56:45.867Z,464
2016-09-08T04:57:45.864Z,492
2016-09-08T04:58:45.870Z,524
2016-09-08T04:59:45.861Z,564
2016-09-08T05:00:45.873Z,604
2016-09-08T05:01:45.866Z,644
2016-09-08T05:02:45.873Z,684
2016-09-08T05:03:45.862Z,724
2016-09-08T05:04:45.871Z,768
2016-09-08T05:05:46.108Z,808
2016-09-08T05:06:45.863Z,852
2016-09-08T05:07:45.868Z,896
2016-09-08T05:08:45.861Z,940
2016-09-08T05:09:45.865Z,988
2016-09-08T05:10:45.863Z,1032
2016-09-08T05:11:45.864Z,1076
2016-09-08T05:12:45.862Z,1124
2016-09-08T05:13:45.870Z,1172
2016-09-08T05:14:45.872Z,1220
2016-09-08T05:15:45.867Z,1268
2016-09-08T05:16:45.869Z,1316
2016-09-08T05:17:45.862Z,1368
2016-09-08T05:18:45.867Z,1608
2016-09-08T05:19:45.865Z,1992
2016-09-08T05:20:45.870Z,2420
2016-09-08T05:21:45.869Z,2668
2016-09-08T05:22:45.868Z,2820
2016-09-08T05:23:46.182Z,2976
2016-09-08T05:24:45.868Z,3100
2016-09-08T05:25:45.869Z,3240
2016-09-08T05:26:45.871Z,3372
2016-09-08T05:27:45.875Z,3584
2016-09-08T05:28:45.868Z,3704
2016-09-08T05:29:45.903Z,3832
2016-09-08T05:30:45.886Z,3900
2016-09-08T05:31:45.897Z,3888
2016-09-08T05:32:45.874Z,3884
2016-09-08T05:33:45.873Z,3876
2016-09-08T05:34:45.879Z,2700
2016-09-08T05:35:45.874Z,3808
2016-09-08T05:36:45.889Z,3828
2016-09-08T05:37:46.127Z,3788
2016-09-08T05:38:45.893Z,3776
2016-09-08T05:39:45.906Z,3708
2016-09-08T05:40:45.908Z,3620
2016-09-08T05:41:45.902Z,3488
2016-09-08T05:42:45.902Z,3388
2016-09-08T05:43:45.895Z,3296
2016-09-08T05:44:45.895Z,3168
2016-09-08T05:45:45.899Z,3244
2016-09-08T05:46:45.896Z,3256
2016-09-08T05:47:45.911Z,3252
2016-09-08T05:48:46.212Z,3296
2016-09-08T05:49:46.219Z,3292
2016-09-08T05:50:45.904Z,3304
2016-09-08T05:51:45.900Z,3300
2016-09-08T05:52:46.226Z,3316
2016-09-08T05:53:45.901Z,3332
2016-09-08T05:54:45.914Z,3360
2016-09-08T05:55:45.906Z,3360
2016-09-08T05:56:45.917Z,3348
2016-09-08T05:57:45.919Z,3320
2016-09-08T05:58:45.915Z,3280
2016-09-08T05:59:45.923Z,3268
2016-09-08T06:00:45.928Z,3284
2016-09-08T06:01:45.925Z,3308
2016-09-08T06:02:45.930Z,3332
2016-09-08T06:03:45.928Z,3352
2016-09-08T06:04:45.917Z,3368
2016-09-08T06:05:45.925Z,3388
2016-09-08T06:06:45.923Z,3400
2016-09-08T06:07:45.938Z,3424
2016-09-08T06:08:45.923Z,3448
2016-09-08T06:09:45.971Z,3464
2016-09-08T06:10:46.182Z,3480
2016-09-08T06:11:45.929Z,3500
2016-09-08T06:12:45.932Z,3520
2016-09-08T06:13:45.935Z,3548
2016-09-08T06:14:45.929Z,3580
2016-09-08T06:15:45.926Z,3628
2016-09-08T06:16:45.998Z,3708
2016-09-08T06:17:45.927Z,3820
2016-09-08T06:18:45.932Z,3972
2016-09-08T06:19:45.933Z,4172
2016-09-08T06:20:45.935Z,4392
2016-09-08T06:21:45.935Z,4584
2016-09-08T06:22:45.935Z,4708
2016-09-08T06:23:45.936Z,4836
2016-09-08T06:24:45.936Z,4884
2016-09-08T06:25:46.265Z,5024
2016-09-08T06:26:45.938Z,5216
2016-09-08T06:27:46.194Z,5376
2016-09-08T06:28:45.942Z,5668
2016-09-08T06:29:46.485Z,6096
2016-09-08T06:30:45.941Z,6504
2016-09-08T06:31:45.944Z,6940
2016-09-08T06:32:45.943Z,7248
2016-09-08T06:33:45.941Z,7372
2016-09-08T06:34:45.953Z,7252
2016-09-08T06:35:45.949Z,6940
2016-09-08T06:36:45.958Z,6664
2016-09-08T06:37:45.957Z,6564
2016-09-08T06:38:45.953Z,6616
2016-09-08T06:39:46.008Z,6852
2016-09-08T06:40:45.974Z,7192
2016-09-08T06:41:45.977Z,7608
2016-09-08T06:42:45.965Z,8084
2016-09-08T06:43:46.297Z,8432
2016-09-08T06:44:45.979Z,8692
2016-09-08T06:45:45.980Z,8824
2016-09-08T06:46:45.983Z,8908
2016-09-08T06:47:46.288Z,8960
2016-09-08T06:48:45.986Z,9000
2016-09-08T06:49:45.980Z,9020
2016-09-08T06:50:45.986Z,9044
2016-09-08T06:51:45.997Z,9088
2016-09-08T06:52:46.006Z,9160
2016-09-08T06:53:46.041Z,9188
2016-09-08T06:54:46.015Z,9240
2016-09-08T06:55:46.009Z,9276
2016-09-08T06:56:46.042Z,9376
2016-09-08T06:57:46.026Z,9368
2016-09-08T06:58:46.341Z,9408
2016-09-08T06:59:46.047Z,6840
2016-09-08T07:00:46.349Z,9088
2016-09-08T07:01:46.058Z,8492
2016-09-08T07:02:46.047Z,7892
2016-09-08T07:03:46.045Z,7668
2016-09-08T07:04:46.051Z,7648
2016-09-08T07:05:46.058Z,7444
2016-09-08T07:06:46.062Z,7144
2016-09-08T07:07:46.066Z,7164
2016-09-08T07:08:46.078Z,7176
2016-09-08T07:09:46.082Z,7040
2016-09-08T07:10:46.077Z,6932
2016-09-08T07:11:46.087Z,6620
2016-09-08T07:12:46.340Z,6284
2016-09-08T07:13:46.118Z,6636
2016-09-08T07:14:46.113Z,7036
2016-09-08T07:15:46.114Z,7224
2016-09-08T07:16:46.112Z,7716
2016-09-08T07:17:46.112Z,8568
2016-09-08T07:18:46.115Z,9240
2016-09-08T07:19:46.122Z,9492
2016-09-08T07:20:46.126Z,9592
2016-09-08T07:21:46.129Z,9616
2016-09-08T07:22:46.134Z,9688
2016-09-08T07:23:46.145Z,9736
2016-09-08T07:24:46.142Z,9756
2016-09-08T07:25:46.151Z,9772
2016-09-08T07:26:46.165Z,9788
2016-09-08T07:27:46.164Z,9768
2016-09-08T07:28:46.174Z,9756
2016-09-08T07:29:46.179Z,9764
2016-09-08T07:30:46.177Z,9772
2016-09-08T07:31:46.190Z,9784
2016-09-08T07:32:46.735Z,9784
2016-09-08T07:33:46.190Z,9784
2016-09-08T07:34:46.209Z,9744
2016-09-08T07:35:46.203Z,9712
2016-09-08T07:36:46.225Z,9716
2016-09-08T07:37:46.221Z,9684
2016-09-08T07:38:46.234Z,9620
2016-09-08T07:39:46.237Z,9384
2016-09-08T07:40:46.242Z,9136
2016-09-08T07:41:46.252Z,8724
2016-09-08T07:42:46.249Z,8240
2016-09-08T07:43:46.275Z,7632
2016-09-08T07:44:46.267Z,7012
2016-09-08T07:45:46.277Z,6660
2016-09-08T07:46:46.279Z,6540
2016-09-08T07:47:46.291Z,6564
2016-09-08T07:48:46.622Z,6804
2016-09-08T07:49:46.301Z,6956
2016-09-08T07:50:46.308Z,6728
2016-09-08T07:51:46.306Z,6444
2016-09-08T07:52:46.314Z,6364
2016-09-08T07:53:46.314Z,6216
2016-09-08T07:54:46.331Z,6200
2016-09-08T07:55:46.335Z,6244
2016-09-08T07:56:46.341Z,6304
2016-09-08T07:57:46.351Z,6456
2016-09-08T07:58:46.346Z,6792
2016-09-08T07:59:46.354Z,7284
2016-09-08T08:00:46.372Z,7720
2016-09-08T08:01:46.368Z,7960
2016-09-08T08:02:46.373Z,8004
2016-09-08T08:03:46.385Z,7992
2016-09-08T08:04:46.371Z,7968
2016-09-08T08:05:46.394Z,8052
2016-09-08T08:06:46.399Z,8052
2016-09-08T08:07:46.389Z,7996
2016-09-08T08:08:46.406Z,7988
2016-09-08T08:09:46.405Z,7984
2016-09-08T08:10:46.408Z,7960
2016-09-08T08:11:46.411Z,7968
2016-09-08T08:12:46.756Z,7952
2016-09-08T08:13:46.444Z,7924
2016-09-08T08:14:46.446Z,7880
2016-09-08T08:15:46.444Z,7856
2016-09-08T08:16:46.468Z,7812
2016-09-08T08:17:46.452Z,7736
2016-09-08T08:18:46.447Z,7632
2016-09-08T08:19:46.472Z,7556
2016-09-08T08:20:46.472Z,7500
2016-09-08T08:21:46.782Z,7444
2016-09-08T08:22:46.795Z,7452
2016-09-08T08:23:46.482Z,7392
2016-09-08T08:24:46.488Z,7356
2016-09-08T08:25:46.492Z,7304
2016-09-08T08:26:46.520Z,7292
2016-09-08T08:27:46.520Z,7288
2016-09-08T08:28:46.523Z,7284
2016-09-08T08:29:46.528Z,7276
2016-09-08T08:30:46.527Z,7252
2016-09-08T08:31:46.542Z,7204
2016-09-08T08:32:46.538Z,7260
2016-09-08T08:33:46.543Z,7160
2016-09-08T08:34:46.557Z,7124
2016-09-08T08:35:46.562Z,7084
2016-09-08T08:36:46.563Z,7060
2016-09-08T08:37:46.568Z,7068
2016-09-08T08:38:47.212Z,7048
2016-09-08T08:39:46.587Z,7044
2016-09-08T08:40:46.585Z,7016
2016-09-08T08:41:46.592Z,6992
2016-09-08T08:42:46.607Z,6976
2016-09-08T08:43:46.617Z,6976
2016-09-08T08:44:46.865Z,6956
2016-09-08T08:45:46.612Z,6928
2016-09-08T08:46:46.612Z,6900
2016-09-08T08:47:47.189Z,6868
2016-09-08T08:48:46.625Z,6872
2016-09-08T08:49:46.943Z,6848
2016-09-08T08:50:46.641Z,6820
2016-09-08T08:51:46.644Z,6792
2016-09-08T08:52:46.644Z,6776
2016-09-08T08:53:46.648Z,6760
2016-09-08T08:54:46.653Z,6736
2016-09-08T08:55:46.671Z,6696
2016-09-08T08:56:46.670Z,6668
2016-09-08T08:57:46.683Z,6600
2016-09-08T08:58:46.679Z,6476
2016-09-08T08:59:46.692Z,6388
2016-09-08T09:00:46.706Z,6348
2016-09-08T09:01:46.690Z,6336
2016-09-08T09:02:46.693Z,6312
2016-09-08T09:03:46.696Z,6284
2016-09-08T09:04:46.706Z,6252
2016-09-08T09:05:46.708Z,6232
2016-09-08T09:06:46.717Z,6380
2016-09-08T09:07:46.710Z,6268
2016-09-08T09:08:46.710Z,6272
2016-09-08T09:09:46.716Z,6280
2016-09-08T09:10:46.963Z,6248
2016-09-08T09:11:46.730Z,6224
2016-09-08T09:12:46.729Z,6068
2016-09-08T09:13:47.061Z,6192
2016-09-08T09:14:46.731Z,6180
2016-09-08T09:15:46.955Z,6160
2016-09-08T09:16:46.760Z,6148
2016-09-08T09:17:46.763Z,6120
2016-09-08T09:18:46.768Z,6096
2016-09-08T09:19:46.765Z,6080
2016-09-08T09:20:47.028Z,6072
2016-09-08T09:21:46.769Z,6056
2016-09-08T09:22:46.770Z,6076
2016-09-08T09:23:46.769Z,6044
2016-09-08T09:24:46.785Z,6040
2016-09-08T09:25:46.783Z,6032
2016-09-08T09:26:46.787Z,6008
2016-09-08T09:27:46.791Z,5996
2016-09-08T09:28:47.107Z,5988
2016-09-08T09:29:46.800Z,5972
2016-09-08T09:30:46.825Z,5964
2016-09-08T09:31:46.806Z,5952
2016-09-08T09:32:46.827Z,5936
2016-09-08T09:33:46.827Z,5940
2016-09-08T09:34:46.830Z,5928
2016-09-08T09:35:46.830Z,5924
2016-09-08T09:36:46.829Z,5908
2016-09-08T09:37:47.080Z,5900
2016-09-08T09:38:46.851Z,5872
2016-09-08T09:39:46.839Z,5864
2016-09-08T09:40:46.853Z,5832
2016-09-08T09:41:46.855Z,5828
2016-09-08T09:42:46.869Z,5816
2016-09-08T09:43:46.854Z,5824
2016-09-08T09:44:46.873Z,5804
2016-09-08T09:45:46.864Z,5788
2016-09-08T09:46:46.872Z,5792
2016-09-08T09:47:46.874Z,5788
2016-09-08T09:48:46.889Z,5788
2016-09-08T09:49:46.926Z,5772
2016-09-08T09:50:46.904Z,5792
2016-09-08T09:51:46.902Z,5788
2016-09-08T09:52:46.897Z,5800
2016-09-08T09:53:46.904Z,5800
2016-09-08T09:54:46.912Z,5796
2016-09-08T09:55:46.927Z,5788
2016-09-08T09:56:46.918Z,5784
2016-09-08T09:57:46.946Z,5788
2016-09-08T09:58:46.949Z,5780
2016-09-08T09:59:46.952Z,5760
2016-09-08T10:00:46.951Z,5752
2016-09-08T10:01:47.254Z,5752
2016-09-08T10:02:46.967Z,5736
2016-09-08T10:03:46.972Z,5740
2016-09-08T10:04:46.970Z,5736
2016-09-08T10:05:46.967Z,5732
2016-09-08T10:06:46.969Z,5708
2016-09-08T10:07:46.975Z,5708
2016-09-08T10:08:46.971Z,5708
2016-09-08T10:09:46.972Z,5692
2016-09-08T10:10:46.986Z,5688
2016-09-08T10:11:46.985Z,5668
2016-09-08T10:12:47.013Z,5668
2016-09-08T10:13:47.012Z,5656
2016-09-08T10:14:47.020Z,5652
2016-09-08T10:15:47.015Z,5648
2016-09-08T10:16:47.013Z,5636
2016-09-08T10:17:47.016Z,5640
2016-09-08T10:18:47.031Z,5616
2016-09-08T10:19:47.342Z,5600
2016-09-08T10:20:47.031Z,5584
2016-09-08T10:21:47.036Z,5592
2016-09-08T10:22:47.045Z,5588
2016-09-08T10:23:47.046Z,5572
2016-09-08T10:24:47.051Z,5556
2016-09-08T10:25:47.378Z,5560
2016-09-08T10:26:47.056Z,5540
2016-09-08T10:27:47.388Z,5536
2016-09-08T10:28:47.121Z,5532
2016-09-08T10:29:47.073Z,5516
2016-09-08T10:30:47.096Z,5516
2016-09-08T10:31:47.092Z,5496
2016-09-08T10:32:47.095Z,5480
2016-09-08T10:33:47.099Z,5484
2016-09-08T10:34:47.100Z,5480
2016-09-08T10:35:47.104Z,5472
2016-09-08T10:36:47.109Z,5484
2016-09-08T10:37:47.117Z,5492
2016-09-08T10:38:47.131Z,5484
2016-09-08T10:39:47.129Z,5480
2016-09-08T10:40:47.133Z,5476
2016-09-08T10:41:47.139Z,5464
2016-09-08T10:42:47.150Z,5444
2016-09-08T10:43:47.160Z,5448
2016-09-08T10:44:47.475Z,5436
2016-09-08T10:45:47.159Z,5436
2016-09-08T10:46:47.166Z,5400
2016-09-08T10:47:47.479Z,5380
2016-09-08T10:48:47.188Z,5396
2016-09-08T10:49:47.179Z,5384
2016-09-08T10:50:47.186Z,5400
2016-09-08T10:51:47.189Z,5396
2016-09-08T10:52:47.195Z,5380
2016-09-08T10:53:47.207Z,5384
2016-09-08T10:54:47.207Z,5364
2016-09-08T10:55:47.213Z,5344
2016-09-08T10:56:47.217Z,5344
2016-09-08T10:57:47.236Z,5352
2016-09-08T10:58:47.230Z,5348
2016-09-08T10:59:47.238Z,5356
2016-09-08T11:00:47.476Z,5336
2016-09-08T11:01:47.243Z,5316
2016-09-08T11:02:47.245Z,5280
2016-09-08T11:03:47.265Z,5280
2016-09-08T11:04:47.275Z,5276
2016-09-08T11:05:47.271Z,5312
2016-09-08T11:06:47.273Z,5316
2016-09-08T11:07:47.282Z,5320
2016-09-08T11:08:47.278Z,5324
2016-09-08T11:09:47.285Z,5320
2016-09-08T11:10:47.295Z,5312
2016-09-08T11:11:47.302Z,5316
2016-09-08T11:12:47.314Z,5332
2016-09-08T11:13:47.315Z,5316
2016-09-08T11:14:47.318Z,5352
2016-09-08T11:15:47.324Z,5328
2016-09-08T11:16:47.333Z,5320
2016-09-08T11:17:47.585Z,5320
2016-09-08T11:18:47.335Z,5320
2016-09-08T11:19:47.348Z,5328
2016-09-08T11:20:47.354Z,5324
2016-09-08T11:21:47.361Z,5324
2016-09-08T11:22:47.356Z,5320
2016-09-08T11:23:47.371Z,5300
2016-09-08T11:24:47.381Z,5304
2016-09-08T11:25:47.389Z,5288
2016-09-08T11:26:47.390Z,5232
2016-09-08T11:27:47.638Z,5248
2016-09-08T11:28:47.402Z,5292
2016-09-08T11:29:47.413Z,5320
2016-09-08T11:30:47.411Z,5292
2016-09-08T11:31:47.413Z,5308
2016-09-08T11:32:47.434Z,5300
2016-09-08T11:33:47.427Z,5336
2016-09-08T11:34:47.431Z,5352
2016-09-08T11:35:47.433Z,5324
2016-09-08T11:36:47.466Z,5300
2016-09-08T11:37:47.469Z,5288
2016-09-08T11:38:47.481Z,5280
2016-09-08T11:39:47.468Z,5276
2016-09-08T11:40:47.486Z,5252
2016-09-08T11:41:47.640Z,5248
2016-09-08T11:42:47.505Z,5236
2016-09-08T11:43:47.508Z,5260
2016-09-08T11:44:47.506Z,5260
2016-09-08T11:45:47.502Z,5248
2016-09-08T11:46:47.509Z,5192
2016-09-08T11:47:47.510Z,5196
2016-09-08T11:48:47.510Z,5204
2016-09-08T11:49:47.527Z,5200
2016-09-08T11:50:47.547Z,5204
2016-09-08T11:51:47.527Z,5180
2016-09-08T11:52:47.544Z,5172
2016-09-08T11:53:47.546Z,5156
2016-09-08T11:54:47.568Z,5140
2016-09-08T11:55:47.578Z,5132
2016-09-08T11:56:47.588Z,5120
2016-09-08T11:57:47.566Z,5100
2016-09-08T11:58:47.587Z,5112
2016-09-08T11:59:47.895Z,5092
2016-09-08T12:00:47.591Z,5092
2016-09-08T12:01:47.598Z,5088
2016-09-08T12:02:47.591Z,5100
2016-09-08T12:03:47.916Z,5092
2016-09-08T12:04:47.601Z,5080
2016-09-08T12:05:47.616Z,5072
2016-09-08T12:06:47.625Z,5068
2016-09-08T12:07:47.636Z,5068
2016-09-08T12:08:47.655Z,5060
2016-09-08T12:09:47.639Z,5068
2016-09-08T12:10:47.661Z,5068
2016-09-08T12:11:47.655Z,5060
2016-09-08T12:12:47.661Z,5060
2016-09-08T12:13:47.650Z,5064
2016-09-08T12:14:47.666Z,5052
2016-09-08T12:15:47.683Z,5044
2016-09-08T12:16:47.917Z,5044
2016-09-08T12:17:47.680Z,5040
2016-09-08T12:18:47.690Z,5028
2016-09-08T12:19:47.698Z,4996
2016-09-08T12:20:47.704Z,4988
2016-09-08T12:21:47.698Z,4980
2016-09-08T12:22:47.715Z,4960
2016-09-08T12:23:47.718Z,4944
2016-09-08T12:24:47.720Z,4924
2016-09-08T12:25:47.726Z,4916
2016-09-08T12:26:47.735Z,4916
2016-09-08T12:27:47.738Z,4900
2016-09-08T12:28:47.737Z,4900
2016-09-08T12:29:47.774Z,4900
2016-09-08T12:30:47.753Z,4888
2016-09-08T12:31:47.752Z,4884
2016-09-08T12:32:47.773Z,4856
2016-09-08T12:33:47.779Z,4852
2016-09-08T12:34:48.110Z,4852
2016-09-08T12:35:47.781Z,4860
2016-09-08T12:36:47.800Z,4836
2016-09-08T12:37:47.800Z,4840
2016-09-08T12:38:47.805Z,4836
2016-09-08T12:39:47.801Z,4828
2016-09-08T12:40:47.809Z,4820
2016-09-08T12:41:48.062Z,4820
2016-09-08T12:42:48.133Z,4816
2016-09-08T12:43:47.826Z,4808
2016-09-08T12:44:48.147Z,4800
2016-09-08T12:45:47.859Z,4784
2016-09-08T12:46:47.849Z,4780
2016-09-08T12:47:47.866Z,4760
2016-09-08T12:48:47.868Z,4736
2016-09-08T12:49:47.874Z,4744
2016-09-08T12:50:47.869Z,4736
2016-09-08T12:51:47.877Z,4732
2016-09-08T12:52:47.873Z,4736
2016-09-08T12:53:47.882Z,4724
2016-09-08T12:54:47.895Z,4708
2016-09-08T12:55:47.908Z,4696
2016-09-08T12:56:47.901Z,4684
2016-09-08T12:57:47.909Z,4676
2016-09-08T12:58:47.939Z,4668
2016-09-08T12:59:47.939Z,4668
2016-09-08T13:00:47.938Z,4664
2016-09-08T13:01:47.933Z,4652
2016-09-08T13:02:47.938Z,4652
2016-09-08T13:03:47.939Z,4632
2016-09-08T13:04:47.948Z,4616
2016-09-08T13:05:47.955Z,4612
2016-09-08T13:06:48.291Z,4616
2016-09-08T13:07:48.210Z,4600
2016-09-08T13:08:47.972Z,4604
2016-09-08T13:09:47.979Z,4612
2016-09-08T13:10:47.998Z,4608
2016-09-08T13:11:48.003Z,4596
2016-09-08T13:12:48.630Z,4592
2016-09-08T13:13:48.000Z,4604
2016-09-08T13:14:48.326Z,4600
2016-09-08T13:15:48.024Z,4596
2016-09-08T13:16:48.021Z,4576
2016-09-08T13:17:48.027Z,4580
2016-09-08T13:18:48.346Z,4580
2016-09-08T13:19:48.048Z,4576
2016-09-08T13:20:48.050Z,4560
2016-09-08T13:21:48.061Z,4564
2016-09-08T13:22:48.061Z,4568
2016-09-08T13:23:48.068Z,4564
2016-09-08T13:24:48.067Z,4572
2016-09-08T13:25:48.081Z,4564
2016-09-08T13:26:48.408Z,4560
2016-09-08T13:27:48.086Z,4548
2016-09-08T13:28:48.089Z,4540
2016-09-08T13:29:48.099Z,4536
2016-09-08T13:30:48.098Z,4532
2016-09-08T13:31:48.111Z,4520
2016-09-08T13:32:48.115Z,4512
2016-09-08T13:33:48.126Z,4484
2016-09-08T13:34:48.130Z,4504
2016-09-08T13:35:48.132Z,4520
2016-09-08T13:36:48.140Z,4520
2016-09-08T13:37:48.462Z,4524
2016-09-08T13:38:48.152Z,4524
2016-09-08T13:39:48.164Z,4528
2016-09-08T13:40:48.183Z,4516
2016-09-08T13:41:48.169Z,4532
2016-09-08T13:42:48.174Z,4524
2016-09-08T13:43:48.177Z,4516
2016-09-08T13:44:48.198Z,4508
2016-09-08T13:45:48.207Z,4504
2016-09-08T13:46:48.216Z,4500
2016-09-08T13:47:48.202Z,4496